MET7781 - Hamburg to Keflavik

Airbus A321-232
665MT - Sharklet Equipped
3 hrs 00 mins
1171 nm
Ferry - M

Departure

Departing from
Hamburg (XFW)
Departure gate
Delivery Centre
Scheduled Departure
GMT 0700
Local 0800
METAR
TAF
  • No charts available

Arrival

Arriving at
Keflavik (KEF)
Arrival gate
Ramp
Scheduled Arrival
GMT 1000
Local 1000
METAR BIKF 221400Z 14008KT 9999 -RA FEW020 BKN030 BKN090 02/01 Q1012
TAF TAF BIKF 221100Z 2212/2312 17007KT 9999 FEW015 SCT025 BKN040 TX07/2312Z TN01/2212Z BECMG 2215/2218 15017KT BECMG 2220/2223 15025G35KT 5000 RADZ OVC012 TEMPO 2223/2310 15035G45KT 2000 RADZ BR OVC006 BECMG 2310/2312 16022KT TEMPO 2310/2312 2000 RADZ BR OVC006

Route Map

Planning Resources

LBE UP992 VES U613 VALDI ING KEILA2
Route:
OFP Layout:
Units:
Detailed Navlog:
ETOPS Planning:
Plan Stepclimbs:
Runway Analysis:
Include NOTAMS:
FIR NOTAMS:
Flight Maps:

Popularity

Hub Current Bids PiReps this month Total PiReps
KMCI 0 1 1
KLAX 0 0 0
KBOS 0 0 0